Time;durP1;ratioP1;P1;durP2;ratioP2;P2;SDS_P1;SDS_P2;PMS_P1;PMS_P2;Temp;Humidity;BMP_temperature;BMP_pressure;BME280_temperature;BME280_humidity;BME280_pressure;Samples;Min_cycle;Max_cycle;Signal;HPM_P1;HPM_P2
2023/01/27 00:02:04;;;;;;;93.00;35.20;;;;;;;6.56;62.09;100801.40;108604;1250;59497;-90
2023/01/27 00:04:31;;;;;;;75.80;31.20;;;;;;;6.45;63.32;100800.81;108591;1253;72074;-90
2023/01/27 00:06:58;;;;;;;105.40;40.40;;;;;;;6.66;63.25;100796.95;108675;1250;71807;-91
2023/01/27 00:09:29;;;;;;;;;;;;;;;7.00;62.18;100788.90;108606;1250;73934;-91
2023/01/27 00:14:41;;;;;;;95.50;36.00;;;;;;;6.99;61.59;100792.03;108655;1250;59650;-91
2023/01/27 00:17:08;;;;;;;94.10;39.10;;;;;;;6.77;62.02;100791.77;108613;1250;72832;-91
2023/01/27 00:19:35;;;;;;;110.70;45.00;;;;;;;6.82;61.84;100790.67;108552;1250;69508;-91
2023/01/27 00:24:48;;;;;;;101.20;40.90;;;;;;;6.84;61.37;100788.03;108640;1250;61162;-90
2023/01/27 00:27:17;;;;;;;116.20;45.30;;;;;;;6.50;62.56;100789.06;108687;1250;61042;-91
2023/01/27 00:29:46;;;;;;;88.80;38.70;;;;;;;6.78;61.64;100789.14;108617;1250;72212;-91
2023/01/27 00:35:01;;;;;;;113.10;45.50;;;;;;;6.59;62.17;100787.42;108786;1250;71251;-90
2023/01/27 00:37:28;;;;;;;112.40;42.30;;;;;;;6.30;62.96;100791.52;108816;1251;61160;-90
2023/01/27 00:39:55;;;;;;;106.80;46.00;;;;;;;6.20;63.37;100790.58;108716;1250;60187;-89
2023/01/27 00:42:22;;;;;;;111.10;46.00;;;;;;;6.32;62.85;100795.16;108608;1250;72060;-90
2023/01/27 00:47:37;;;;;;;109.60;44.30;;;;;;;6.19;63.16;100788.81;108621;1250;72900;-90
2023/01/27 00:50:07;;;;;;;109.20;45.10;;;;;;;5.94;63.62;100789.02;108626;1251;61176;-90
2023/01/27 00:52:34;;;;;;;98.40;41.00;;;;;;;6.18;62.93;100787.44;108513;1251;60146;-91
2023/01/27 00:55:03;;;;;;;95.80;42.40;;;;;;;6.05;63.12;100787.36;108494;1251;72846;-89
2023/01/27 00:57:30;;;;;;;100.10;42.40;;;;;;;6.10;62.96;100782.63;108586;1250;70118;-91
2023/01/27 00:59:58;;;;;;;103.30;44.60;;;;;;;6.32;62.31;100780.52;108559;1251;72625;-89
2023/01/27 01:02:26;;;;;;;97.20;41.70;;;;;;;6.39;61.95;100772.95;108598;1253;61249;-91
2023/01/27 01:04:52;;;;;;;91.40;38.70;;;;;;;6.24;62.24;100766.66;108422;1251;59407;-91
2023/01/27 01:07:19;;;;;;;108.60;43.40;;;;;;;6.17;62.50;100763.05;108586;1251;73290;-91
2023/01/27 01:09:47;;;;;;;93.70;41.90;;;;;;;6.36;62.16;100766.71;108515;1251;71242;-91
2023/01/27 01:12:14;;;;;;;75.90;34.60;;;;;;;6.65;61.51;100757.70;108360;1251;72771;-90
2023/01/27 01:14:41;;;;;;;93.60;40.30;;;;;;;6.91;62.02;100761.92;108591;1251;60515;-90
2023/01/27 01:17:08;;;;;;;92.80;42.30;;;;;;;6.93;61.48;100763.14;108348;1252;60517;-92
2023/01/27 01:19:35;;;;;;;98.30;43.20;;;;;;;6.91;60.80;100761.23;108532;1251;72857;-89
2023/01/27 01:22:02;;;;;;;95.60;41.50;;;;;;;6.69;60.78;100764.61;108508;1251;69587;-91
2023/01/27 01:24:37;;;;;;;83.00;36.50;;;;;;;6.21;62.05;100767.70;108601;1250;70503;-90
2023/01/27 01:27:04;;;;;;;89.40;40.40;;;;;;;6.03;62.60;100767.00;109062;1250;61040;-88
2023/01/27 01:29:31;;;;;;;86.70;38.40;;;;;;;6.17;62.43;100762.70;108935;1250;60130;-89
2023/01/27 01:32:00;;;;;;;80.60;37.30;;;;;;;6.28;62.19;100755.98;108934;1251;73040;-90
2023/01/27 01:34:31;;;;;;;88.20;38.50;;;;;;;6.35;62.17;100753.80;108602;1251;71642;-88
2023/01/27 01:37:00;;;;;;;91.40;39.30;;;;;;;6.55;61.92;100752.39;108577;1250;72691;-90
2023/01/27 01:39:28;;;;;;;85.30;38.20;;;;;;;6.57;61.62;100747.48;108651;1250;62434;-91
2023/01/27 01:41:54;;;;;;;103.20;43.60;;;;;;;6.44;62.06;100744.13;108707;1251;59506;-91
2023/01/27 01:44:26;;;;;;;93.70;39.80;;;;;;;6.48;61.80;100743.04;108608;1251;72604;-89
2023/01/27 01:46:53;;;;;;;98.60;42.20;;;;;;;6.50;62.02;100735.17;108664;1251;68540;-90
2023/01/27 01:49:36;;;;;;;79.80;35.20;;;;;;;6.64;61.63;100735.03;109005;1251;72639;-89
2023/01/27 01:52:15;;;;;;;90.00;37.90;;;;;;;6.56;62.09;100735.28;108816;1250;61129;-90
2023/01/27 01:54:52;;;;;;;109.10;44.80;;;;;;;6.46;61.82;100735.91;109099;1251;60277;-90
2023/01/27 01:57:21;;;;;;;95.50;40.90;;;;;;;6.34;61.73;100736.90;108905;1250;73073;-90
2023/01/27 05:41:18;;;;;;;104.70;34.20;;;;;;;-2.23;100.00;100740.17;91069;1291;613970;-94
2023/01/27 05:43:46;;;;;;;142.80;48.10;;;;;;;-0.37;100.00;100739.23;107509;1260;62884;-63
2023/01/27 05:46:15;;;;;;;124.90;45.90;;;;;;;0.62;100.00;100733.83;107536;1260;59510;-64
2023/01/27 05:48:53;;;;;;;133.00;47.70;;;;;;;1.11;100.00;100726.30;107551;1261;73219;-64
2023/01/27 05:51:22;;;;;;;131.80;46.40;;;;;;;1.32;100.00;100725.84;107533;1260;68442;-64
2023/01/27 05:53:48;;;;;;;119.20;43.60;;;;;;;1.58;100.00;100728.15;107393;1258;161112;-64
2023/01/27 05:56:16;;;;;;;127.10;43.40;;;;;;;1.65;100.00;100729.09;107649;1259;62946;-64
2023/01/27 05:58:44;;;;;;;121.90;44.60;;;;;;;1.81;100.00;100734.94;107723;1258;60570;-64
2023/01/27 06:01:22;;;;;;;119.30;45.00;;;;;;;1.75;100.00;100737.32;107610;1258;73278;-64
2023/01/27 06:03:49;;;;;;;110.80;42.80;;;;;;;1.75;100.00;100736.97;107608;1259;71425;-64
2023/01/27 06:06:17;;;;;;;107.70;42.10;;;;;;;1.86;100.00;100739.14;107589;1259;73031;-64
2023/01/27 06:08:44;;;;;;;123.80;44.90;;;;;;;1.90;100.00;100743.15;107701;1259;62314;-65
2023/01/27 06:11:11;;;;;;;108.60;35.80;;;;;;;2.10;100.00;100738.46;107756;1259;61517;-64
2023/01/27 06:13:41;;;;;;;117.70;42.80;;;;;;;2.01;100.00;100742.20;107657;1258;72047;-63
2023/01/27 06:16:10;;;;;;;116.50;43.90;;;;;;;2.03;100.00;100748.80;107654;1259;70771;-64
2023/01/27 06:18:37;;;;;;;102.50;37.30;;;;;;;2.02;100.00;100749.66;107635;1259;73359;-64
2023/01/27 06:21:05;;;;;;;112.80;42.60;;;;;;;1.95;100.00;100755.15;107585;1259;63246;-62
2023/01/27 06:23:33;;;;;;;120.00;46.60;;;;;;;2.39;100.00;100750.10;107653;1259;60413;-66
2023/01/27 06:26:02;;;;;;;118.20;45.80;;;;;;;2.50;100.00;100753.45;107594;1259;74285;-66
2023/01/27 06:28:30;;;;;;;110.50;42.20;;;;;;;2.40;100.00;100754.43;107625;1259;71425;-66
2023/01/27 06:31:04;;;;;;;125.70;45.20;;;;;;;2.63;100.00;100755.78;107619;1259;73636;-66
2023/01/27 06:33:31;;;;;;;113.00;40.70;;;;;;;2.60;100.00;100755.23;107704;1259;62965;-66
2023/01/27 06:36:02;;;;;;;113.70;41.00;;;;;;;2.40;100.00;100751.84;107671;1259;60690;-66
2023/01/27 06:38:29;;;;;;;110.90;41.30;;;;;;;2.47;100.00;100749.27;107700;1259;73850;-66
2023/01/27 06:40:56;;;;;;;141.20;61.10;;;;;;;2.71;100.00;100749.23;107637;1259;71311;-66
2023/01/27 06:43:23;;;;;;;111.60;42.10;;;;;;;2.85;100.00;100750.00;107609;1259;73774;-66
2023/01/27 06:45:49;;;;;;;100.40;38.40;;;;;;;2.95;100.00;100745.35;107645;1258;63081;-65
2023/01/27 06:48:16;;;;;;;101.80;41.70;;;;;;;3.04;100.00;100745.73;107660;1258;60575;-66
2023/01/27 06:50:44;;;;;;;105.80;39.50;;;;;;;3.23;100.00;100743.36;107634;1258;75010;-65
2023/01/27 06:53:11;;;;;;;93.90;39.40;;;;;;;3.34;100.00;100740.27;107595;1259;70323;-65
2023/01/27 06:55:40;;;;;;;119.30;44.20;;;;;;;3.23;100.00;100742.67;107534;1259;73472;-64
2023/01/27 06:58:08;;;;;;;121.20;44.10;;;;;;;3.31;100.00;100737.65;107579;1259;62898;-65
2023/01/27 07:00:36;;;;;;;98.00;40.60;;;;;;;3.42;100.00;100742.02;107692;1262;59518;-65
2023/01/27 07:03:03;;;;;;;113.10;44.50;;;;;;;3.49;100.00;100743.94;107598;1259;73034;-65
2023/01/27 07:05:32;;;;;;;124.90;48.10;;;;;;;3.50;100.00;100745.67;107545;1259;71518;-65
2023/01/27 07:07:59;;;;;;;124.60;46.10;;;;;;;3.78;100.00;100749.52;107543;1259;71894;-66
2023/01/27 07:10:26;;;;;;;113.20;45.50;;;;;;;3.61;100.00;100746.56;107530;1259;60998;-65
2023/01/27 07:13:06;;;;;;;123.60;45.30;;;;;;;3.47;100.00;100746.53;107521;1259;61255;-65
2023/01/27 07:15:34;;;;;;;122.70;45.50;;;;;;;3.39;100.00;100740.80;107545;1259;72453;-65
2023/01/27 07:18:01;;;;;;;127.70;48.50;;;;;;;3.63;100.00;100737.70;107562;1258;68420;-65
2023/01/27 07:20:28;;;;;;;119.50;45.50;;;;;;;3.51;100.00;100733.36;107574;1259;72073;-65
2023/01/27 07:22:59;;;;;;;113.30;44.00;;;;;;;3.56;100.00;100741.52;107528;1259;62865;-65
2023/01/27 07:25:26;;;;;;;107.30;41.20;;;;;;;3.78;100.00;100741.02;107600;1259;61533;-65
2023/01/27 07:27:53;;;;;;;115.10;44.60;;;;;;;3.91;93.11;100745.89;107551;1259;70824;-65
2023/01/27 07:30:19;;;;;;;109.90;43.20;;;;;;;3.95;92.91;100747.80;107547;1259;71425;-66
2023/01/27 07:32:49;;;;;;;103.90;40.10;;;;;;;3.68;93.89;100745.17;107531;1259;72680;-66
2023/01/27 07:35:16;;;;;;;111.20;44.30;;;;;;;3.73;93.30;100748.84;107561;1259;62940;-66
2023/01/27 07:37:43;;;;;;;104.00;41.00;;;;;;;3.74;93.17;100745.54;107652;1259;61473;-66
2023/01/27 07:40:12;;;;;;;108.50;45.60;;;;;;;3.82;92.47;100744.67;107547;1261;74271;-65
2023/01/27 07:42:39;;;;;;;119.60;47.00;;;;;;;4.08;91.06;100741.55;107546;1262;70500;-65
2023/01/27 07:45:08;;;;;;;102.20;43.00;;;;;;;3.83;91.45;100744.67;107560;1259;74018;-65
2023/01/27 07:47:35;;;;;;;101.40;38.70;;;;;;;4.15;90.72;100737.35;107591;1259;60019;-64
2023/01/27 07:50:02;;;;;;;92.10;35.90;;;;;;;4.35;89.72;100735.60;107599;1259;60857;-64
2023/01/27 07:52:28;;;;;;;90.70;36.30;;;;;;;4.33;89.85;100738.91;107624;1260;73742;-65
2023/01/27 07:54:55;;;;;;;89.10;35.30;;;;;;;4.58;89.00;100735.55;107573;1259;71494;-64
2023/01/27 07:57:22;;;;;;;103.40;43.30;;;;;;;4.36;89.67;100739.08;107528;1259;73908;-65
2023/01/27 07:59:51;;;;;;;90.10;37.20;;;;;;;4.45;88.95;100731.58;107548;1259;63071;-64
2023/01/27 08:02:18;;;;;;;95.50;39.00;;;;;;;4.56;88.77;100731.56;107569;1259;61551;-65
2023/01/27 08:04:48;;;;;;;90.50;36.50;;;;;;;4.54;87.54;100729.46;107570;1259;72177;-65
2023/01/27 08:07:20;;;;;;;84.40;34.90;;;;;;;4.41;87.31;100728.64;107589;1259;70757;-65
2023/01/27 08:09:46;;;;;;;89.30;37.00;;;;;;;4.38;77.51;100724.47;107550;1259;73653;-65
2023/01/27 08:12:14;;;;;;;92.00;35.80;;;;;;;4.50;72.46;100724.97;107605;1259;62820;-65
2023/01/27 08:14:40;;;;;;;87.30;34.20;;;;;;;4.44;71.05;100722.71;107685;1259;61412;-65
2023/01/27 08:17:07;;;;;;;86.10;35.50;;;;;;;4.29;71.04;100722.58;107631;1259;74297;-65
2023/01/27 08:19:34;;;;;;;92.70;36.10;;;;;;;3.97;72.13;100727.30;107644;1259;71545;-65
2023/01/27 08:22:01;;;;;;;86.10;32.80;;;;;;;4.13;71.68;100725.20;107582;1261;74007;-65
2023/01/27 08:24:28;;;;;;;77.50;31.60;;;;;;;4.19;71.13;100729.20;107566;1259;61003;-65
2023/01/27 08:26:55;;;;;;;88.70;35.00;;;;;;;4.05;71.25;100726.95;107582;1259;61712;-64
2023/01/27 08:29:22;;;;;;;114.20;40.50;;;;;;;4.17;71.29;100729.20;107597;1261;73816;-65
2023/01/27 08:31:49;;;;;;;82.00;32.40;;;;;;;4.38;70.75;100724.47;107520;1259;71248;-65
2023/01/27 08:34:15;;;;;;;83.60;33.40;;;;;;;4.46;70.54;100723.41;107526;1259;73708;-65
2023/01/27 08:36:42;;;;;;;71.70;29.70;;;;;;;4.46;70.68;100723.06;107512;1259;62153;-65
2023/01/27 08:39:09;;;;;;;78.70;32.10;;;;;;;4.38;71.55;100727.27;107556;1259;61129;-65
2023/01/27 08:41:36;;;;;;;74.50;31.20;;;;;;;4.44;71.35;100723.92;107511;1259;73359;-65
2023/01/27 08:44:03;;;;;;;78.90;33.10;;;;;;;4.63;71.30;100719.00;107531;1259;70098;-65
2023/01/27 08:46:30;;;;;;;75.30;30.30;;;;;;;4.97;69.81;100711.04;107531;1259;71893;-65
2023/01/27 08:48:56;;;;;;;104.30;39.80;;;;;;;5.02;69.18;100711.71;107523;1259;62227;-65
2023/01/27 08:51:23;;;;;;;95.10;36.60;;;;;;;4.93;68.66;100706.71;107518;1259;59899;-65
2023/01/27 08:53:50;;;;;;;111.20;40.60;;;;;;;5.07;68.12;100705.60;107555;1259;72408;-64
2023/01/27 08:56:17;;;;;;;93.40;36.30;;;;;;;5.04;67.72;100701.79;107582;1259;71523;-65
2023/01/27 08:58:46;;;;;;;75.10;29.90;;;;;;;4.97;67.19;100708.09;107591;1259;72097;-64
2023/01/27 09:01:13;;;;;;;89.60;43.40;;;;;;;4.92;67.27;100712.45;107629;1259;62042;-64
2023/01/27 09:03:39;;;;;;;83.20;35.50;;;;;;;4.71;68.16;100713.77;107614;1259;61163;-64
2023/01/27 09:06:07;;;;;;;75.20;37.50;;;;;;;4.82;68.20;100711.11;107590;1259;73333;-65
2023/01/27 09:08:34;;;;;;;70.10;30.90;;;;;;;4.96;68.49;100705.83;107598;1259;71319;-64
2023/01/27 09:11:10;;;;;;;70.50;28.10;;;;;;;5.26;67.86;100701.48;107606;1259;71089;-65
2023/01/27 09:13:37;;;;;;;76.10;27.80;;;;;;;5.68;66.15;100699.80;107591;1259;61917;-65
2023/01/27 09:16:04;;;;;;;126.90;36.50;;;;;;;5.51;65.77;100703.23;107599;1259;60494;-65
2023/01/27 09:18:32;;;;;;;76.10;30.20;;;;;;;5.16;65.80;100706.77;107563;1259;73278;-65
2023/01/27 09:21:03;;;;;;;97.60;33.50;;;;;;;5.15;65.79;100708.88;107556;1259;71221;-65
2023/01/27 09:23:32;;;;;;;71.30;31.80;;;;;;;5.28;64.94;100717.14;107540;1259;73565;-65
2023/01/27 09:25:58;;;;;;;84.40;34.30;;;;;;;5.06;64.96;100716.23;107545;1259;60322;-65
2023/01/27 09:28:25;;;;;;;71.60;28.80;;;;;;;5.05;64.83;100715.71;107571;1259;59891;-65
2023/01/27 09:30:56;;;;;;;73.50;30.10;;;;;;;5.14;64.98;100714.27;107552;1259;73258;-65
2023/01/27 09:33:24;;;;;;;73.20;30.20;;;;;;;5.21;65.30;100710.23;107592;1259;70314;-65
2023/01/27 09:36:02;;;;;;;67.00;27.20;;;;;;;5.33;66.04;100712.08;107563;1259;73801;-65
2023/01/27 09:38:31;;;;;;;66.20;28.20;;;;;;;5.35;66.13;100713.63;107611;1263;60665;-65
2023/01/27 09:41:11;;;;;;;86.30;33.30;;;;;;;5.24;66.31;100709.86;107592;1259;60612;-65
2023/01/27 14:02:19;;;;;;;64.00;30.30;;;;;;;1.13;100.00;100631.42;105835;1284;613721;-65
2023/01/27 14:05:01;;;;;;;57.40;26.70;;;;;;;2.48;100.00;100630.73;107240;1263;123391;-61
2023/01/27 14:07:51;;;;;;;67.40;29.20;;;;;;;2.64;100.00;100634.78;107353;1263;61529;-63
2023/01/27 14:10:29;;;;;;;58.40;25.40;;;;;;;2.66;100.00;100635.48;107379;1263;72570;-63
2023/01/27 14:13:06;;;;;;;65.70;27.80;;;;;;;2.94;100.00;100647.70;107387;1263;71595;-63
2023/01/27 14:15:44;;;;;;;62.90;27.40;;;;;;;3.17;100.00;100648.61;107413;1263;74262;-64
2023/01/27 14:18:25;;;;;;;68.70;28.70;;;;;;;3.16;100.00;100646.17;107386;1264;63138;-65
2023/01/27 14:20:56;;;;;;;64.50;29.70;;;;;;;3.25;93.93;100646.53;107316;1263;61562;-63
2023/01/27 14:23:31;;;;;;;72.10;30.00;;;;;;;3.17;93.20;100642.88;107886;1261;72505;-63
2023/01/27 14:26:15;;;;;;;74.30;32.80;;;;;;;3.29;91.31;100638.90;107882;1257;72256;-64
2023/01/27 14:29:12;;;;;;;73.30;31.90;;;;;;;3.14;90.98;100640.45;107765;1257;73485;-63
2023/01/27 14:31:49;;;;;;;74.00;32.70;;;;;;;3.25;90.63;100642.55;107988;1257;62254;-63
2023/01/27 14:34:27;;;;;;;66.00;28.40;;;;;;;3.40;89.89;100648.98;107970;1256;59519;-65
2023/01/27 14:55:40;;;;;;;79.00;34.30;;;;;;;3.80;75.42;100650.88;107599;1259;72657;-65
2023/01/27 14:58:27;;;;;;;253.50;99.30;;;;;;;3.90;75.28;100648.43;107573;1260;71253;-64
2023/01/27 15:01:33;;;;;;;126.80;46.80;;;;;;;3.92;75.43;100648.78;107572;1259;72583;-64
2023/01/27 15:04:23;;;;;;;82.90;34.70;;;;;;;4.13;74.36;100646.98;107535;1260;62256;-65
2023/01/27 15:07:01;;;;;;;100.50;42.50;;;;;;;3.86;75.12;100651.74;107528;1260;61281;-64
2023/01/27 15:09:32;;;;;;;79.20;33.40;;;;;;;3.84;75.35;100654.87;107584;1260;74084;-65
2023/01/27 15:12:00;;;;;;;82.60;34.80;;;;;;;3.88;74.86;100650.70;107550;1259;71746;-64
2023/01/27 15:14:47;;;;;;;79.10;33.10;;;;;;;4.08;73.78;100652.92;107541;1260;73830;-65
2023/01/27 15:17:40;;;;;;;89.90;38.10;;;;;;;4.10;73.41;100655.88;107560;1259;62616;-64
2023/01/27 15:20:47;;;;;;;112.60;47.20;;;;;;;4.13;73.70;100655.88;107480;1260;61059;-64
2023/01/27 15:23:21;;;;;;;78.50;33.40;;;;;;;4.07;73.95;100656.05;107358;1259;73537;-64
2023/01/27 15:25:51;;;;;;;80.60;34.10;;;;;;;4.06;73.92;100654.50;107638;1264;70498;-64
2023/01/27 15:28:23;;;;;;;77.20;32.10;;;;;;;4.19;73.69;100650.29;107614;1263;73733;-64
2023/01/27 15:31:07;;;;;;;89.30;36.50;;;;;;;4.29;73.03;100656.35;107620;1259;59917;-64
2023/01/27 15:33:51;;;;;;;81.90;36.60;;;;;;;4.22;72.43;100657.05;107557;1260;61555;-64
2023/01/27 15:36:25;;;;;;;93.20;41.10;;;;;;;4.04;72.02;100651.55;107607;1259;73915;-64
2023/01/27 15:39:08;;;;;;;148.60;65.40;;;;;;;4.07;71.98;100648.05;107609;1260;71494;-64
2023/01/27 15:42:01;;;;;;;88.30;37.30;;;;;;;4.36;70.64;100644.68;107611;1259;73752;-64
2023/01/27 15:44:31;;;;;;;109.60;42.80;;;;;;;4.09;71.21;100649.09;107627;1262;60338;-64
2023/01/27 15:47:10;;;;;;;99.70;40.80;;;;;;;4.27;70.94;100652.35;107606;1262;60070;-64
2023/01/27 15:49:49;;;;;;;84.20;36.30;;;;;;;4.06;71.25;100652.23;107719;1261;73233;-64
2023/01/27 15:52:22;;;;;;;89.40;38.20;;;;;;;3.97;71.44;100653.46;107576;1260;70853;-64
2023/01/27 15:54:50;;;;;;;92.30;37.10;;;;;;;4.07;71.18;100654.15;107634;1260;73630;-64
2023/01/27 15:57:34;;;;;;;136.30;57.50;;;;;;;4.13;70.97;100651.17;107611;1260;61879;-64
2023/01/27 16:00:46;;;;;;;89.00;37.80;;;;;;;3.94;71.23;100656.59;107657;1260;61260;-64
2023/01/27 16:03:25;;;;;;;95.50;35.40;;;;;;;3.95;71.02;100659.02;107690;1260;73947;-64
2023/01/27 16:05:56;;;;;;;93.20;34.90;;;;;;;3.98;70.56;100664.23;107631;1260;71267;-64
2023/01/27 16:08:24;;;;;;;80.20;33.10;;;;;;;3.91;70.74;100666.68;107530;1265;71768;-64
2023/01/27 16:10:52;;;;;;;76.70;32.40;;;;;;;3.96;70.12;100672.41;107635;1259;62143;-64
2023/01/27 16:13:21;;;;;;;76.80;32.50;;;;;;;3.88;69.97;100670.16;107414;1261;60392;-64
2023/01/27 16:16:15;;;;;;;78.40;32.20;;;;;;;3.69;70.28;100672.77;107517;1261;73352;-64
2023/01/27 16:18:50;;;;;;;79.60;31.40;;;;;;;3.69;70.28;100673.12;107618;1260;71607;-64
2023/01/27 16:21:51;;;;;;;243.00;89.60;;;;;;;3.52;70.66;100674.67;107528;1261;72912;-64
2023/01/27 16:24:25;;;;;;;181.00;58.30;;;;;;;3.61;70.53;100667.20;107615;1263;62603;-65
2023/01/27 16:27:05;;;;;;;128.60;42.80;;;;;;;3.43;71.21;100661.13;107631;1261;59491;-64
2023/01/27 16:29:37;;;;;;;122.10;43.00;;;;;;;3.42;71.51;100660.79;107475;1264;74028;-64
2023/01/27 16:32:14;;;;;;;115.80;40.30;;;;;;;3.42;71.76;100660.09;107651;1260;71400;-65
2023/01/27 16:34:52;;;;;;;89.50;33.90;;;;;;;3.51;72.07;100657.14;107639;1260;72673;-64
2023/01/27 16:37:28;;;;;;;87.80;35.10;;;;;;;3.63;71.31;100659.40;107486;1260;61692;-64
2023/01/27 16:40:07;;;;;;;89.50;33.30;;;;;;;3.83;70.57;100661.30;107540;1261;59445;-65
2023/01/27 16:42:38;;;;;;;85.70;32.90;;;;;;;4.07;70.20;100663.17;107628;1260;74118;-64
2023/01/27 16:45:18;;;;;;;88.30;33.00;;;;;;;4.18;70.04;100663.67;107438;1261;69930;-64
2023/01/27 16:48:06;;;;;;;105.60;39.90;;;;;;;4.51;69.13;100655.05;107525;1260;73847;-64
2023/01/27 16:50:39;;;;;;;127.90;42.50;;;;;;;4.53;69.21;100659.04;107643;1261;62841;-64
2023/01/27 16:53:18;;;;;;;78.70;32.20;;;;;;;3.94;70.37;100658.85;107676;1259;61581;-64
2023/01/27 16:56:06;;;;;;;73.60;31.10;;;;;;;4.03;69.96;100656.05;107612;1261;73421;-64
2023/01/27 16:58:34;;;;;;;68.10;29.80;;;;;;;4.23;68.80;100656.20;107629;1260;71548;-64
2023/01/27 17:01:24;;;;;;;77.80;33.90;;;;;;;4.40;68.39;100652.48;107593;1263;73964;-64
2023/01/27 17:03:55;;;;;;;95.50;36.80;;;;;;;4.45;67.99;100649.69;107534;1263;62412;-65
2023/01/27 17:06:25;;;;;;;91.40;32.50;;;;;;;4.49;67.52;100647.76;107582;1263;61530;-64
2023/01/27 17:08:53;;;;;;;86.90;32.30;;;;;;;4.52;67.40;100643.06;107584;1260;73055;-64
2023/01/27 17:11:31;;;;;;;67.60;29.50;;;;;;;4.34;67.62;100643.46;107594;1260;71599;-64
2023/01/27 17:14:01;;;;;;;82.10;31.30;;;;;;;4.51;67.61;100639.74;107592;1263;73659;-64
2023/01/27 17:16:34;;;;;;;96.50;35.90;;;;;;;4.81;66.36;100641.53;107559;1260;63198;-64
2023/01/27 17:19:13;;;;;;;90.80;33.70;;;;;;;4.77;66.28;100639.81;107557;1260;60294;-64
2023/01/27 17:21:57;;;;;;;150.30;50.40;;;;;;;4.45;67.34;100642.39;107569;1263;73306;-64
2023/01/27 17:24:33;;;;;;;147.30;49.80;;;;;;;4.29;67.94;100640.70;107560;1260;70435;-64
2023/01/27 17:27:02;;;;;;;108.90;37.50;;;;;;;4.09;68.29;100640.77;107580;1262;72440;-64
2023/01/27 17:29:39;;;;;;;77.00;31.70;;;;;;;3.98;68.24;100638.88;107454;1265;62225;-64
2023/01/27 17:32:18;;;;;;;108.30;36.90;;;;;;;4.12;67.64;100641.27;107439;1261;61289;-64
2023/01/27 17:34:49;;;;;;;88.10;32.20;;;;;;;4.18;67.54;100637.60;107657;1259;72813;-64
2023/01/27 17:37:19;;;;;;;78.90;31.20;;;;;;;4.17;67.57;100642.65;107533;1260;71590;-64
2023/01/27 17:39:54;;;;;;;83.80;33.50;;;;;;;4.18;67.25;100642.30;107639;1261;73353;-64
2023/01/27 17:42:23;;;;;;;79.60;32.80;;;;;;;4.21;67.58;100634.46;107565;1266;61981;-64
2023/01/27 17:44:51;;;;;;;77.90;31.00;;;;;;;4.37;67.29;100638.25;107678;1261;59499;-64
2023/01/27 17:47:20;;;;;;;94.00;37.90;;;;;;;4.53;66.99;100639.58;107681;1263;74277;-65
2023/01/27 17:49:49;;;;;;;79.40;33.40;;;;;;;4.73;66.13;100636.69;107722;1260;68853;-68
2023/01/27 17:52:21;;;;;;;86.20;34.00;;;;;;;4.17;67.46;100640.73;107675;1261;71317;-64
2023/01/27 17:54:51;;;;;;;74.80;30.70;;;;;;;4.16;67.98;100637.95;107638;1261;62987;-65
2023/01/27 17:57:20;;;;;;;64.70;28.70;;;;;;;4.30;67.87;100636.00;107518;1261;61256;-63
2023/01/27 18:00:12;;;;;;;68.60;30.60;;;;;;;4.15;68.20;100641.60;107872;1258;73357;-64
2023/01/27 18:02:49;;;;;;;74.70;30.80;;;;;;;4.29;68.31;100638.96;107649;1262;69980;-65
2023/01/27 18:05:20;;;;;;;69.30;32.70;;;;;;;4.31;68.40;100641.05;107904;1257;73374;-64
2023/01/27 18:07:49;;;;;;;70.60;31.90;;;;;;;4.34;68.06;100642.95;107552;1258;63295;-64
2023/01/27 22:09:28;;;;;;;84.70;38.90;;;;;;;-0.05;100.00;100631.32;105666;1283;612887;-63
2023/01/27 22:11:56;;;;;;;84.70;35.20;;;;;;;1.34;100.00;100630.36;107258;1263;131346;-63
2023/01/27 22:14:24;;;;;;;84.50;37.50;;;;;;;1.48;100.00;100624.43;108283;1252;61147;-63
2023/01/27 22:16:52;;;;;;;84.10;36.80;;;;;;;1.52;100.00;100621.00;108277;1253;73145;-64
2023/01/27 22:19:21;;;;;;;94.00;38.80;;;;;;;1.75;100.00;100611.80;108257;1254;71538;-65
2023/01/27 22:21:49;;;;;;;110.70;48.50;;;;;;;1.65;100.00;100612.26;108316;1253;73902;-65
2023/01/27 22:24:19;;;;;;;110.20;44.90;;;;;;;1.79;100.00;100602.31;108262;1253;62208;-62
2023/01/27 22:26:47;;;;;;;102.70;44.80;;;;;;;1.75;100.00;100602.28;108281;1252;60330;-62
2023/01/27 22:29:15;;;;;;;95.80;42.10;;;;;;;1.66;100.00;100599.80;108334;1252;73301;-62
2023/01/27 22:31:44;;;;;;;87.90;37.10;;;;;;;1.70;100.00;100593.60;108313;1254;71625;-64
2023/01/27 22:34:12;;;;;;;80.40;36.20;;;;;;;1.65;100.00;100593.23;108298;1254;72388;-65
2023/01/27 22:36:40;;;;;;;95.50;39.20;;;;;;;1.77;100.00;100586.89;108326;1254;61612;-61
2023/01/27 22:39:08;;;;;;;82.50;34.20;;;;;;;1.94;100.00;100581.80;108268;1254;59543;-63
2023/01/27 22:41:36;;;;;;;85.10;36.60;;;;;;;1.95;100.00;100579.73;108372;1252;73624;-62
2023/01/27 22:44:04;;;;;;;91.30;38.50;;;;;;;1.95;100.00;100582.48;108254;1254;71401;-64
2023/01/27 22:46:32;;;;;;;86.70;39.00;;;;;;;1.94;100.00;100578.15;108329;1253;73568;-64
2023/01/27 22:49:00;;;;;;;77.30;35.50;;;;;;;2.04;100.00;100583.58;108282;1254;63015;-63
2023/01/27 22:51:28;;;;;;;83.00;34.40;;;;;;;2.21;100.00;100587.30;108268;1254;61559;-62
2023/01/27 22:53:56;;;;;;;93.90;38.50;;;;;;;2.33;100.00;100587.87;108286;1254;74095;-62
2023/01/27 22:56:25;;;;;;;88.50;36.70;;;;;;;2.48;100.00;100588.96;108274;1256;71671;-64
2023/01/27 22:58:54;;;;;;;81.50;34.80;;;;;;;2.43;100.00;100590.32;108236;1254;72873;-64
2023/01/27 23:01:22;;;;;;;86.40;36.20;;;;;;;2.61;100.00;100589.70;108209;1254;61941;-63
2023/01/27 23:03:50;;;;;;;92.30;38.60;;;;;;;2.64;100.00;100583.11;108246;1253;61599;-66
2023/01/27 23:06:18;;;;;;;101.20;39.10;;;;;;;2.54;100.00;100581.17;108266;1254;73710;-63
2023/01/27 23:08:46;;;;;;;83.30;34.50;;;;;;;2.84;100.00;100579.67;108249;1254;71760;-64
2023/01/27 23:11:14;;;;;;;103.60;40.40;;;;;;;2.90;100.00;100579.36;108299;1254;74022;-63
2023/01/27 23:13:42;;;;;;;92.40;37.90;;;;;;;2.91;100.00;100573.29;108226;1254;62202;-64
2023/01/27 23:16:10;;;;;;;77.20;33.60;;;;;;;2.75;100.00;100568.74;108380;1254;60588;-63
2023/01/27 23:18:38;;;;;;;93.60;39.20;;;;;;;2.54;100.00;100567.30;108247;1254;74232;-63
2023/01/27 23:21:07;;;;;;;91.50;39.60;;;;;;;2.41;100.00;100566.92;108257;1254;71225;-63
2023/01/27 23:23:35;;;;;;;94.20;38.50;;;;;;;2.52;100.00;100571.80;108297;1253;73888;-64
2023/01/27 23:26:06;;;;;;;98.00;40.90;;;;;;;2.52;100.00;100569.90;108204;1253;62235;-63
2023/01/27 23:28:38;;;;;;;94.30;38.60;;;;;;;2.49;100.00;100566.25;108298;1254;61514;-64
2023/01/27 23:31:08;;;;;;;81.10;35.10;;;;;;;2.43;100.00;100567.27;108188;1256;74235;-64
2023/01/27 23:33:39;;;;;;;76.80;33.30;;;;;;;2.60;100.00;100567.85;108208;1253;70657;-65
2023/01/27 23:36:08;;;;;;;74.40;32.70;;;;;;;2.33;100.00;100569.32;108219;1253;73932;-64
2023/01/27 23:38:36;;;;;;;72.40;30.30;;;;;;;2.37;100.00;100570.73;108152;1254;62062;-64
2023/01/27 23:41:12;;;;;;;81.10;34.80;;;;;;;2.58;100.00;100571.31;108230;1252;61336;-63
2023/01/27 23:43:41;;;;;;;76.50;31.70;;;;;;;2.74;100.00;100572.90;108270;1253;73812;-63
2023/01/27 23:46:11;;;;;;;73.50;30.90;;;;;;;2.81;100.00;100573.09;108285;1253;71338;-63
2023/01/27 23:48:40;;;;;;;75.80;33.00;;;;;;;2.63;100.00;100569.42;108183;1254;72737;-62
2023/01/27 23:51:09;;;;;;;74.10;31.20;;;;;;;2.88;100.00;100569.30;108209;1253;61904;-62
2023/01/27 23:53:37;;;;;;;64.80;30.00;;;;;;;2.96;100.00;100567.39;108109;1259;60024;-64